Darrouzett, TX (79024)

4:51 AM CST on December 19, 2014 (GMT -0600)
Zender Laundromat | Change Station
CLOSE
Current Station
Personal Weather Station
Location: Booker, TX
Elevation: 2844 ft
Nearby Weather Stations

Elev 2844 ft 36.45 °N, 100.54 °W | Updated 6 seconds ago

Overcast
Overcast
35.4 °F
Feels Like 35 °F
N
0.0
Wind Variable Wind from SE
Gusts 1.6 mph

Today
High -- | Low -- °F
--% Chance of Precip.
Yesterday
High -- | Low -- °F
Precip. -- in
7:48 AM 5:28 PM
Waning Crescent, 8% visible
Pressure 30.12 in
Visibility 4.0 miles
Clouds Overcast 300 ft
Windchill 35 °F
Dew Point 35 °F
Humidity 99%
Rainfall 0.00 in
Snow Depth Not available.
UV 0 out of 12
Pollen .10 out of 12
Air Quality Not available.
Flu Activity Not available.
METAR KPYX 191035Z AUTO 00000KT 4SM OVC003 02/02 A3012 RMK AO2 T00210016

More Conditions Fewer Conditions

Pressure 30.12 in
Visibility 4.0 miles
Clouds Overcast 300 ft
Windchill 35 °F
Dew Point 35 °F
Humidity 99%
Rainfall 0.00 in
Snow Depth Not available.
UV 0 out of 12
Pollen .10 out of 12
Air Quality Not available.
Flu Activity Not available.
METAR KPYX 191035Z AUTO 00000KT 4SM OVC003 02/02 A3012 RMK AO2 T00210016

More Conditions Fewer Conditions

Nowcast | as of 3:59 am CST on December 19, 2014

Light showers will continue to move across the southern and eastern Texas panhandles through 6 am this morning while patchy fog affects both the Oklahoma and Texas panhandles. Light precipitation amounts could be possible of a few hundredths of an inch. Surface temperatures where rain is reaching the ground remain above freezing so do not expect to see snow mixed in with light rain. Areas affected by the fog can expect visibilities to range between 1 and 5 miles.

×

10-Day Weather Forecast

Almanac

Astronomy

Dec. 19, 2014 Rise Set
Actual Time
Civil Twilight
Nautical Twilight
Astronomical Twilight
Moon
Length of Visible Light
Length of Day
Tomorrow will be .
, % of the Moon is Illuminated

Today's Extremes

State Highs State Lows

Community

WunderPhotos

Upload Photos

1,778,966 photos uploaded!

WunderBlogs® & News

Nearby

Air Quality

  Air Quality AQ Index Pollutant
Not available.

Snow Depth

Station Depth Elevation

Earthquake Activity

City Distance Mag. Time & Date
Minimum magnitude displayed is 2.5.

Coastal Water Temperatures

Place Temperature

Nearby Weather Stations